sensor_id;sensor_type;location;lat;lon;timestamp;pressure;altitude;pressure_sealevel;temperature;humidity
78509;BME280;67802;50.846;7.958;2024-03-29T00:01:49;95833.53;;;20.25;31.86
78509;BME280;67802;50.846;7.958;2024-03-29T00:04:14;95836.19;;;20.25;31.74
78509;BME280;67802;50.846;7.958;2024-03-29T00:06:40;95824.81;;;20.25;31.62
78509;BME280;67802;50.846;7.958;2024-03-29T00:09:05;95830.25;;;20.23;31.65
78509;BME280;67802;50.846;7.958;2024-03-29T00:11:30;95822.53;;;20.22;31.53
78509;BME280;67802;50.846;7.958;2024-03-29T00:13:56;95807.88;;;20.19;31.46
78509;BME280;67802;50.846;7.958;2024-03-29T00:16:22;95816.78;;;20.18;31.67
78509;BME280;67802;50.846;7.958;2024-03-29T00:18:51;95808.22;;;20.16;31.62
78509;BME280;67802;50.846;7.958;2024-03-29T00:21:16;95820.75;;;20.14;31.69
78509;BME280;67802;50.846;7.958;2024-03-29T00:23:41;95820.97;;;20.12;31.62
78509;BME280;67802;50.846;7.958;2024-03-29T00:26:09;95825.41;;;20.12;31.70
78509;BME280;67802;50.846;7.958;2024-03-29T00:28:34;95815.88;;;20.11;31.79
78509;BME280;67802;50.846;7.958;2024-03-29T00:30:59;95808.97;;;20.10;31.77
78509;BME280;67802;50.846;7.958;2024-03-29T00:33:24;95807.31;;;20.09;31.57
78509;BME280;67802;50.846;7.958;2024-03-29T00:35:50;95804.84;;;20.07;31.66
78509;BME280;67802;50.846;7.958;2024-03-29T00:38:15;95810.13;;;20.07;31.59
78509;BME280;67802;50.846;7.958;2024-03-29T00:40:40;95798.78;;;20.07;31.47
78509;BME280;67802;50.846;7.958;2024-03-29T00:43:06;95791.84;;;20.06;31.36
78509;BME280;67802;50.846;7.958;2024-03-29T00:45:31;95790.22;;;20.05;31.37
78509;BME280;67802;50.846;7.958;2024-03-29T00:47:56;95803.41;;;20.05;31.45
78509;BME280;67802;50.846;7.958;2024-03-29T00:50:22;95804.38;;;20.04;31.28
78509;BME280;67802;50.846;7.958;2024-03-29T00:52:47;95800.13;;;20.02;31.48
78509;BME280;67802;50.846;7.958;2024-03-29T00:55:13;95819.56;;;20.01;31.55
78509;BME280;67802;50.846;7.958;2024-03-29T00:57:39;95821.34;;;20.01;31.74
78509;BME280;67802;50.846;7.958;2024-03-29T01:00:05;95811.66;;;20.01;31.66
78509;BME280;67802;50.846;7.958;2024-03-29T01:02:30;95805.53;;;20.01;31.81
78509;BME280;67802;50.846;7.958;2024-03-29T01:04:55;95817.09;;;20.00;31.72
78509;BME280;67802;50.846;7.958;2024-03-29T01:07:21;95833.72;;;20.00;31.46
78509;BME280;67802;50.846;7.958;2024-03-29T01:09:46;95815.28;;;20.00;31.47
78509;BME280;67802;50.846;7.958;2024-03-29T01:12:11;95838.00;;;20.01;31.51
78509;BME280;67802;50.846;7.958;2024-03-29T01:14:37;95824.81;;;20.01;31.61
78509;BME280;67802;50.846;7.958;2024-03-29T01:17:02;95824.81;;;20.01;31.38
78509;BME280;67802;50.846;7.958;2024-03-29T01:19:28;95831.75;;;20.02;31.33
78509;BME280;67802;50.846;7.958;2024-03-29T01:21:53;95835.19;;;20.03;31.44
78509;BME280;67802;50.846;7.958;2024-03-29T01:24:18;95820.19;;;20.04;31.24
78509;BME280;67802;50.846;7.958;2024-03-29T01:26:44;95815.75;;;20.04;31.34
78509;BME280;67802;50.846;7.958;2024-03-29T01:29:10;95816.56;;;20.05;31.69
78509;BME280;67802;50.846;7.958;2024-03-29T01:31:36;95832.19;;;20.06;31.56
78509;BME280;67802;50.846;7.958;2024-03-29T01:34:01;95828.75;;;20.06;31.61
78509;BME280;67802;50.846;7.958;2024-03-29T01:36:28;95816.22;;;20.08;31.57
78509;BME280;67802;50.846;7.958;2024-03-29T01:38:53;95802.06;;;20.09;31.41
78509;BME280;67802;50.846;7.958;2024-03-29T01:41:22;95787.88;;;20.10;31.33
78509;BME280;67802;50.846;7.958;2024-03-29T01:43:48;95804.34;;;20.12;31.38
78509;BME280;67802;50.846;7.958;2024-03-29T01:46:14;95805.97;;;20.13;31.30
78509;BME280;67802;50.846;7.958;2024-03-29T01:48:39;95808.63;;;20.13;30.87
78509;BME280;67802;50.846;7.958;2024-03-29T01:51:04;95810.22;;;20.14;31.13
78509;BME280;67802;50.846;7.958;2024-03-29T01:53:30;95817.13;;;20.15;31.33
78509;BME280;67802;50.846;7.958;2024-03-29T01:55:56;95824.88;;;20.16;31.06
78509;BME280;67802;50.846;7.958;2024-03-29T01:58:22;95816.78;;;20.18;31.13
78509;BME280;67802;50.846;7.958;2024-03-29T02:00:53;95811.34;;;20.20;31.23
78509;BME280;67802;50.846;7.958;2024-03-29T02:03:20;95802.59;;;20.19;31.21
78509;BME280;67802;50.846;7.958;2024-03-29T02:05:46;95800.97;;;20.18;31.07
78509;BME280;67802;50.846;7.958;2024-03-29T02:08:13;95784.34;;;20.17;30.94
78509;BME280;67802;50.846;7.958;2024-03-29T02:10:39;95766.06;;;20.16;30.95
78509;BME280;67802;50.846;7.958;2024-03-29T02:13:04;95769.06;;;20.13;30.87
78509;BME280;67802;50.846;7.958;2024-03-29T02:15:30;95774.34;;;20.13;31.18
78509;BME280;67802;50.846;7.958;2024-03-29T02:17:57;95772.88;;;20.10;31.34
78509;BME280;67802;50.846;7.958;2024-03-29T02:20:22;95760.88;;;20.08;31.27
78509;BME280;67802;50.846;7.958;2024-03-29T02:22:55;95753.31;;;20.05;30.99
78509;BME280;67802;50.846;7.958;2024-03-29T02:25:21;95754.47;;;20.02;30.91
78509;BME280;67802;50.846;7.958;2024-03-29T02:27:47;95727.66;;;19.98;30.98
78509;BME280;67802;50.846;7.958;2024-03-29T02:30:17;95720.75;;;19.97;31.09
78509;BME280;67802;50.846;7.958;2024-03-29T02:32:42;95721.13;;;19.94;31.20
78509;BME280;67802;50.846;7.958;2024-03-29T02:35:08;95717.19;;;19.90;31.57
78509;BME280;67802;50.846;7.958;2024-03-29T02:37:35;95727.06;;;19.88;31.30
78509;BME280;67802;50.846;7.958;2024-03-29T02:40:01;95731.50;;;19.87;31.42
78509;BME280;67802;50.846;7.958;2024-03-29T02:42:26;95730.69;;;19.87;31.50
78509;BME280;67802;50.846;7.958;2024-03-29T02:44:51;95739.25;;;19.89;31.54
78509;BME280;67802;50.846;7.958;2024-03-29T02:47:17;95730.38;;;19.90;31.41
78509;BME280;67802;50.846;7.958;2024-03-29T02:49:43;95727.38;;;19.93;31.48
78509;BME280;67802;50.846;7.958;2024-03-29T02:52:08;95720.13;;;19.95;31.52
78509;BME280;67802;50.846;7.958;2024-03-29T02:54:33;95723.22;;;19.99;31.22
78509;BME280;67802;50.846;7.958;2024-03-29T02:56:58;95728.13;;;20.02;31.39
78509;BME280;67802;50.846;7.958;2024-03-29T02:59:24;95732.41;;;20.03;31.42
78509;BME280;67802;50.846;7.958;2024-03-29T03:01:49;95720.69;;;20.06;31.34
78509;BME280;67802;50.846;7.958;2024-03-29T03:04:14;95709.16;;;20.07;31.28
78509;BME280;67802;50.846;7.958;2024-03-29T03:06:39;95719.69;;;20.07;31.34
78509;BME280;67802;50.846;7.958;2024-03-29T03:09:05;95709.97;;;20.07;31.18
78509;BME280;67802;50.846;7.958;2024-03-29T03:11:49;95716.06;;;20.08;31.25
78509;BME280;67802;50.846;7.958;2024-03-29T03:14:14;95709.97;;;20.07;31.18
78509;BME280;67802;50.846;7.958;2024-03-29T03:16:39;95714.44;;;20.07;31.27
78509;BME280;67802;50.846;7.958;2024-03-29T03:19:05;95718.88;;;20.06;31.16
78509;BME280;67802;50.846;7.958;2024-03-29T03:21:30;95712.16;;;20.04;31.30
78509;BME280;67802;50.846;7.958;2024-03-29T03:23:55;95722.69;;;20.04;31.30
78509;BME280;67802;50.846;7.958;2024-03-29T03:26:20;95719.22;;;20.03;31.19
78509;BME280;67802;50.846;7.958;2024-03-29T03:28:46;95708.88;;;20.01;31.39
78509;BME280;67802;50.846;7.958;2024-03-29T03:31:11;95709.88;;;20.00;31.40
78509;BME280;67802;50.846;7.958;2024-03-29T03:33:36;95709.03;;;20.00;31.19
78509;BME280;67802;50.846;7.958;2024-03-29T03:36:02;95710.88;;;19.99;31.24
78509;BME280;67802;50.846;7.958;2024-03-29T03:38:27;95722.41;;;19.98;31.23
78509;BME280;67802;50.846;7.958;2024-03-29T03:40:53;95723.41;;;19.97;31.33
78509;BME280;67802;50.846;7.958;2024-03-29T03:43:18;95737.38;;;19.98;31.40
78509;BME280;67802;50.846;7.958;2024-03-29T03:45:43;95729.66;;;19.96;31.41
78509;BME280;67802;50.846;7.958;2024-03-29T03:48:10;95717.47;;;19.95;31.28
78509;BME280;67802;50.846;7.958;2024-03-29T03:50:37;95715.00;;;19.94;31.34
78509;BME280;67802;50.846;7.958;2024-03-29T03:53:03;95706.31;;;19.93;31.34
78509;BME280;67802;50.846;7.958;2024-03-29T03:55:29;95706.31;;;19.93;31.30
78509;BME280;67802;50.846;7.958;2024-03-29T03:57:54;95707.28;;;19.92;31.40
78509;BME280;67802;50.846;7.958;2024-03-29T04:00:20;95699.38;;;19.92;31.20
78509;BME280;67802;50.846;7.958;2024-03-29T04:02:49;95702.03;;;19.92;31.38
78509;BME280;67802;50.846;7.958;2024-03-29T04:05:19;95688.03;;;19.92;31.26
78509;BME280;67802;50.846;7.958;2024-03-29T04:07:45;95711.72;;;19.92;31.29
78509;BME280;67802;50.846;7.958;2024-03-29T04:10:11;95716.19;;;19.91;31.32
78509;BME280;67802;50.846;7.958;2024-03-29T04:12:36;95715.56;;;19.89;31.22
78509;BME280;67802;50.846;7.958;2024-03-29T04:15:02;95725.09;;;19.90;31.30
78509;BME280;67802;50.846;7.958;2024-03-29T04:17:28;95717.34;;;19.89;31.30
78509;BME280;67802;50.846;7.958;2024-03-29T04:19:56;95720.94;;;19.87;31.52
78509;BME280;67802;50.846;7.958;2024-03-29T04:22:21;95713.88;;;19.88;31.38
78509;BME280;67802;50.846;7.958;2024-03-29T04:24:46;95710.41;;;19.87;31.30
78509;BME280;67802;50.846;7.958;2024-03-29T04:27:12;95713.25;;;19.86;31.39
78509;BME280;67802;50.846;7.958;2024-03-29T04:29:37;95708.97;;;19.85;31.25
78509;BME280;67802;50.846;7.958;2024-03-29T04:32:02;95699.41;;;19.84;31.06
78509;BME280;67802;50.846;7.958;2024-03-29T04:34:28;95708.31;;;19.83;31.26
78509;BME280;67802;50.846;7.958;2024-03-29T04:36:53;95701.41;;;19.82;31.40
78509;BME280;67802;50.846;7.958;2024-03-29T04:39:18;95699.78;;;19.81;31.32
78509;BME280;67802;50.846;7.958;2024-03-29T04:41:44;95692.88;;;19.80;31.32
78509;BME280;67802;50.846;7.958;2024-03-29T04:44:11;95694.06;;;19.77;31.34
78509;BME280;67802;50.846;7.958;2024-03-29T04:46:36;95687.16;;;19.76;31.50
78509;BME280;67802;50.846;7.958;2024-03-29T04:49:02;95688.31;;;19.73;31.29
78509;BME280;67802;50.846;7.958;2024-03-29T04:51:27;95685.03;;;19.71;31.31
78509;BME280;67802;50.846;7.958;2024-03-29T04:53:52;95684.38;;;19.69;31.18
78509;BME280;67802;50.846;7.958;2024-03-29T04:56:17;95690.63;;;19.68;31.36
78509;BME280;67802;50.846;7.958;2024-03-29T04:58:43;95687.38;;;19.66;31.47
78509;BME280;67802;50.846;7.958;2024-03-29T05:01:11;95667.28;;;19.65;31.42
78509;BME280;67802;50.846;7.958;2024-03-29T05:03:36;95673.56;;;19.64;31.49
78509;BME280;67802;50.846;7.958;2024-03-29T05:06:01;95678.81;;;19.64;31.47
78509;BME280;67802;50.846;7.958;2024-03-29T05:08:27;95690.34;;;19.63;31.43
78509;BME280;67802;50.846;7.958;2024-03-29T05:10:52;95684.28;;;19.63;31.55
78509;BME280;67802;50.846;7.958;2024-03-29T05:13:18;95681.63;;;19.63;31.46
78509;BME280;67802;50.846;7.958;2024-03-29T05:15:45;95680.81;;;19.62;31.55
78509;BME280;67802;50.846;7.958;2024-03-29T05:18:10;95680.81;;;19.62;31.38
78509;BME280;67802;50.846;7.958;2024-03-29T05:20:36;95697.59;;;19.61;31.58
78509;BME280;67802;50.846;7.958;2024-03-29T05:23:01;95694.16;;;19.61;31.58
78509;BME280;67802;50.846;7.958;2024-03-29T05:25:27;95700.22;;;19.61;31.63
78509;BME280;67802;50.846;7.958;2024-03-29T05:27:52;95680.00;;;19.62;31.56
78509;BME280;67802;50.846;7.958;2024-03-29T05:30:17;95692.34;;;19.61;31.55
78509;BME280;67802;50.846;7.958;2024-03-29T05:32:43;95681.81;;;19.61;31.39
78509;BME280;67802;50.846;7.958;2024-03-29T05:35:09;95691.34;;;19.62;31.43
78509;BME280;67802;50.846;7.958;2024-03-29T05:37:35;95690.53;;;19.62;31.41
78509;BME280;67802;50.846;7.958;2024-03-29T05:40:00;95681.63;;;19.63;31.47
78509;BME280;67802;50.846;7.958;2024-03-29T05:42:31;95677.19;;;19.63;31.47
78509;BME280;67802;50.846;7.958;2024-03-29T05:44:57;95694.63;;;19.64;31.33
78509;BME280;67802;50.846;7.958;2024-03-29T05:47:23;95692.81;;;19.65;31.57
78509;BME280;67802;50.846;7.958;2024-03-29T05:49:49;95686.56;;;19.66;31.44
78509;BME280;67802;50.846;7.958;2024-03-29T05:52:14;95689.00;;;19.67;31.26
78509;BME280;67802;50.846;7.958;2024-03-29T05:54:40;95699.19;;;19.70;31.29
78509;BME280;67802;50.846;7.958;2024-03-29T05:57:06;95699.19;;;19.70;31.33
78509;BME280;67802;50.846;7.958;2024-03-29T05:59:34;95700.81;;;19.71;31.42
78509;BME280;67802;50.846;7.958;2024-03-29T06:01:59;95704.09;;;19.73;31.34
78509;BME280;67802;50.846;7.958;2024-03-29T06:04:25;95708.38;;;19.75;31.40
78509;BME280;67802;50.846;7.958;2024-03-29T06:06:58;95700.47;;;19.75;31.28
78509;BME280;67802;50.846;7.958;2024-03-29T06:09:24;95710.66;;;19.78;31.21
78509;BME280;67802;50.846;7.958;2024-03-29T06:11:49;95720.19;;;19.79;31.32
78509;BME280;67802;50.846;7.958;2024-03-29T06:14:14;95713.94;;;19.80;31.09
78509;BME280;67802;50.846;7.958;2024-03-29T06:16:58;95717.22;;;19.82;31.35
78509;BME280;67802;50.846;7.958;2024-03-29T06:19:42;95731.88;;;19.84;31.29
78509;BME280;67802;50.846;7.958;2024-03-29T06:22:07;95718.50;;;19.86;31.24
78509;BME280;67802;50.846;7.958;2024-03-29T06:24:34;95720.94;;;19.87;31.38
78509;BME280;67802;50.846;7.958;2024-03-29T06:27:00;95728.72;;;19.89;31.29
78509;BME280;67802;50.846;7.958;2024-03-29T06:29:25;95731.16;;;19.91;31.33
78509;BME280;67802;50.846;7.958;2024-03-29T06:31:50;95736.44;;;19.91;31.29
78509;BME280;67802;50.846;7.958;2024-03-29T06:34:16;95738.91;;;19.92;31.22
78509;BME280;67802;50.846;7.958;2024-03-29T06:36:41;95738.91;;;19.92;31.37
78509;BME280;67802;50.846;7.958;2024-03-29T06:39:06;95738.91;;;19.92;31.21
78509;BME280;67802;50.846;7.958;2024-03-29T06:41:32;95732.66;;;19.93;31.24
78509;BME280;67802;50.846;7.958;2024-03-29T06:43:58;95724.75;;;19.93;31.20
78509;BME280;67802;50.846;7.958;2024-03-29T06:46:23;95731.66;;;19.94;31.17
78509;BME280;67802;50.846;7.958;2024-03-29T06:48:48;95723.75;;;19.94;31.27
78509;BME280;67802;50.846;7.958;2024-03-29T06:51:14;95734.28;;;19.94;31.33
78509;BME280;67802;50.846;7.958;2024-03-29T06:53:39;95732.47;;;19.95;31.33
78509;BME280;67802;50.846;7.958;2024-03-29T06:56:05;95735.94;;;19.95;31.29
78509;BME280;67802;50.846;7.958;2024-03-29T06:58:30;95731.66;;;19.94;31.50
78509;BME280;67802;50.846;7.958;2024-03-29T07:00:56;95730.81;;;19.94;31.20
78509;BME280;67802;50.846;7.958;2024-03-29T07:03:23;95731.66;;;19.94;31.31
78509;BME280;67802;50.846;7.958;2024-03-29T07:05:49;95726.38;;;19.94;31.29
78509;BME280;67802;50.846;7.958;2024-03-29T07:08:15;95735.09;;;19.95;31.34
78509;BME280;67802;50.846;7.958;2024-03-29T07:10:40;95735.09;;;19.95;31.28
78509;BME280;67802;50.846;7.958;2024-03-29T07:13:06;95734.94;;;19.96;31.32
78509;BME280;67802;50.846;7.958;2024-03-29T07:15:31;95740.19;;;19.96;31.38
78509;BME280;67802;50.846;7.958;2024-03-29T07:17:57;95750.75;;;19.96;31.30
78509;BME280;67802;50.846;7.958;2024-03-29T07:20:25;95762.91;;;19.97;31.31
78509;BME280;67802;50.846;7.958;2024-03-29T07:22:51;95755.03;;;19.97;31.32
78509;BME280;67802;50.846;7.958;2024-03-29T07:25:16;95760.28;;;19.97;31.47
78509;BME280;67802;50.846;7.958;2024-03-29T07:27:41;95757.66;;;19.97;31.43
78509;BME280;67802;50.846;7.958;2024-03-29T07:30:07;95757.66;;;19.97;31.31
78509;BME280;67802;50.846;7.958;2024-03-29T07:32:33;95760.28;;;19.97;31.46
78509;BME280;67802;50.846;7.958;2024-03-29T07:34:59;95757.66;;;19.97;31.42
78509;BME280;67802;50.846;7.958;2024-03-29T07:37:25;95768.19;;;19.97;31.37
78509;BME280;67802;50.846;7.958;2024-03-29T07:39:50;95764.72;;;19.97;31.39
78509;BME280;67802;50.846;7.958;2024-03-29T07:42:16;95771.00;;;19.96;31.49
78509;BME280;67802;50.846;7.958;2024-03-29T07:44:42;95786.00;;;19.95;31.39
78509;BME280;67802;50.846;7.958;2024-03-29T07:47:07;95789.63;;;19.94;31.41
78509;BME280;67802;50.846;7.958;2024-03-29T07:49:33;95786.34;;;19.92;31.34
78509;BME280;67802;50.846;7.958;2024-03-29T07:51:58;95791.63;;;19.92;31.34
78509;BME280;67802;50.846;7.958;2024-03-29T07:54:24;95787.34;;;19.91;31.50
78509;BME280;67802;50.846;7.958;2024-03-29T07:56:50;95786.69;;;19.89;31.54
78509;BME280;67802;50.846;7.958;2024-03-29T07:59:15;95796.41;;;19.89;31.44
78509;BME280;67802;50.846;7.958;2024-03-29T08:01:44;95803.66;;;19.86;31.54
78509;BME280;67802;50.846;7.958;2024-03-29T08:04:09;95802.00;;;19.85;31.56
78509;BME280;67802;50.846;7.958;2024-03-29T08:06:34;95804.81;;;19.84;31.62
78509;BME280;67802;50.846;7.958;2024-03-29T08:09:00;95809.28;;;19.83;31.63
78509;BME280;67802;50.846;7.958;2024-03-29T08:11:25;95804.16;;;19.82;31.45
78509;BME280;67802;50.846;7.958;2024-03-29T08:13:50;95804.34;;;19.80;31.57
78509;BME280;67802;50.846;7.958;2024-03-29T08:16:16;95800.88;;;19.80;31.46
78509;BME280;67802;50.846;7.958;2024-03-29T08:18:45;95802.72;;;19.79;31.63
78509;BME280;67802;50.846;7.958;2024-03-29T08:21:10;95798.59;;;19.77;31.74
78509;BME280;67802;50.846;7.958;2024-03-29T08:23:41;95784.78;;;19.75;31.80
78509;BME280;67802;50.846;7.958;2024-03-29T08:26:10;95786.59;;;19.74;31.73
78509;BME280;67802;50.846;7.958;2024-03-29T08:28:35;95786.75;;;19.72;31.75
78509;BME280;67802;50.846;7.958;2024-03-29T08:31:04;95786.94;;;19.71;31.77
78509;BME280;67802;50.846;7.958;2024-03-29T08:33:31;95786.09;;;19.70;31.73
78509;BME280;67802;50.846;7.958;2024-03-29T08:35:57;95789.94;;;19.68;31.76
78509;BME280;67802;50.846;7.958;2024-03-29T08:38:23;95791.72;;;19.67;31.69
78509;BME280;67802;50.846;7.958;2024-03-29T08:40:48;95789.09;;;19.67;31.79
78509;BME280;67802;50.846;7.958;2024-03-29T08:43:14;95784.16;;;19.64;31.96
78509;BME280;67802;50.846;7.958;2024-03-29T08:45:41;95787.63;;;19.65;31.93
78509;BME280;67802;50.846;7.958;2024-03-29T08:48:07;95779.91;;;19.63;31.85
78509;BME280;67802;50.846;7.958;2024-03-29T08:50:34;95786.16;;;19.62;32.02
78509;BME280;67802;50.846;7.958;2024-03-29T08:53:01;95796.06;;;19.60;32.38
78509;BME280;67802;50.846;7.958;2024-03-29T08:55:26;95796.22;;;19.27;32.11
78509;BME280;67802;50.846;7.958;2024-03-29T08:57:51;95800.59;;;19.03;32.57
78509;BME280;67802;50.846;7.958;2024-03-29T09:00:16;95800.44;;;18.96;33.06
78509;BME280;67802;50.846;7.958;2024-03-29T09:02:42;95799.09;;;19.01;32.88
78509;BME280;67802;50.846;7.958;2024-03-29T09:05:08;95807.97;;;19.08;32.64
78509;BME280;67802;50.846;7.958;2024-03-29T09:07:33;95820.78;;;18.94;33.80
78509;BME280;67802;50.846;7.958;2024-03-29T09:09:59;95820.66;;;18.71;34.14
78509;BME280;67802;50.846;7.958;2024-03-29T09:12:25;95819.53;;;18.49;34.55
78509;BME280;67802;50.846;7.958;2024-03-29T09:14:51;95818.41;;;18.43;34.52
78509;BME280;67802;50.846;7.958;2024-03-29T09:17:17;95810.19;;;18.54;34.11
78509;BME280;67802;50.846;7.958;2024-03-29T09:19:42;95810.47;;;18.68;33.73
78509;BME280;67802;50.846;7.958;2024-03-29T09:22:08;95816.25;;;18.80;33.59
78509;BME280;67802;50.846;7.958;2024-03-29T09:24:33;95814.22;;;18.90;33.66
78509;BME280;67802;50.846;7.958;2024-03-29T09:26:59;95816.06;;;18.98;33.41
78509;BME280;67802;50.846;7.958;2024-03-29T09:29:25;95832.81;;;19.05;33.55
78509;BME280;67802;50.846;7.958;2024-03-29T09:31:50;95824.22;;;19.11;33.51
78509;BME280;67802;50.846;7.958;2024-03-29T09:34:15;95830.78;;;19.16;33.40
78509;BME280;67802;50.846;7.958;2024-03-29T09:36:40;95828.34;;;18.89;34.28
78509;BME280;67802;50.846;7.958;2024-03-29T09:39:06;95832.84;;;18.56;35.36
78509;BME280;67802;50.846;7.958;2024-03-29T09:41:33;95844.69;;;18.27;35.70
78509;BME280;67802;50.846;7.958;2024-03-29T09:44:03;95846.66;;;18.24;35.51
78509;BME280;67802;50.846;7.958;2024-03-29T09:46:29;95846.00;;;18.39;35.00
78509;BME280;67802;50.846;7.958;2024-03-29T09:48:55;95842.56;;;18.55;34.55
78509;BME280;67802;50.846;7.958;2024-03-29T09:51:21;95839.25;;;18.69;34.26
78509;BME280;67802;50.846;7.958;2024-03-29T09:53:47;95840.53;;;18.82;34.22
78509;BME280;67802;50.846;7.958;2024-03-29T09:56:14;95844.66;;;18.93;34.11
78509;BME280;67802;50.846;7.958;2024-03-29T09:58:39;95849.94;;;19.01;34.05
78509;BME280;67802;50.846;7.958;2024-03-29T10:01:06;95849.06;;;19.09;33.99
78509;BME280;67802;50.846;7.958;2024-03-29T10:03:38;95844.78;;;19.16;33.83
78509;BME280;67802;50.846;7.958;2024-03-29T10:06:04;95855.44;;;19.23;33.68
78509;BME280;67802;50.846;7.958;2024-03-29T10:08:30;95859.22;;;19.28;33.61
78509;BME280;67802;50.846;7.958;2024-03-29T10:10:59;95858.72;;;19.33;33.55
78509;BME280;67802;50.846;7.958;2024-03-29T10:13:25;95848.84;;;19.35;33.59
78509;BME280;67802;50.846;7.958;2024-03-29T10:15:54;95854.78;;;19.29;33.79
78509;BME280;67802;50.846;7.958;2024-03-29T10:18:30;95863.69;;;19.20;34.11
78509;BME280;67802;50.846;7.958;2024-03-29T10:21:07;95853.81;;;19.13;34.28
78509;BME280;67802;50.846;7.958;2024-03-29T10:23:33;95869.94;;;19.19;34.36
78509;BME280;67802;50.846;7.958;2024-03-29T10:26:00;95870.91;;;19.26;34.39
78509;BME280;67802;50.846;7.958;2024-03-29T10:28:30;95870.22;;;19.32;34.26
78509;BME280;67802;50.846;7.958;2024-03-29T10:30:57;95860.66;;;19.39;34.22
78509;BME280;67802;50.846;7.958;2024-03-29T10:33:22;95863.63;;;19.45;34.61
78509;BME280;67802;50.846;7.958;2024-03-29T10:35:47;95871.81;;;19.50;34.16
78509;BME280;67802;50.846;7.958;2024-03-29T10:38:12;95870.50;;;19.54;34.27
78509;BME280;67802;50.846;7.958;2024-03-29T10:40:38;95863.06;;;19.57;34.15
78509;BME280;67802;50.846;7.958;2024-03-29T10:43:08;95867.97;;;19.61;34.41
78509;BME280;67802;50.846;7.958;2024-03-29T10:45:37;95859.75;;;19.64;34.36
78509;BME280;67802;50.846;7.958;2024-03-29T10:48:04;95860.22;;;19.67;34.14
78509;BME280;67802;50.846;7.958;2024-03-29T10:50:34;95872.03;;;19.71;34.25
78509;BME280;67802;50.846;7.958;2024-03-29T10:53:00;95866.44;;;19.75;34.38
78509;BME280;67802;50.846;7.958;2024-03-29T10:55:30;95865.94;;;19.79;34.37
78509;BME280;67802;50.846;7.958;2024-03-29T10:57:57;95868.88;;;19.84;34.37
78509;BME280;67802;50.846;7.958;2024-03-29T11:00:24;95881.53;;;19.89;34.43
78509;BME280;67802;50.846;7.958;2024-03-29T11:03:12;95878.56;;;19.92;34.41
78509;BME280;67802;50.846;7.958;2024-03-29T11:05:38;95869.31;;;19.96;34.39
78509;BME280;67802;50.846;7.958;2024-03-29T11:08:06;95871.63;;;19.99;34.29
78509;BME280;67802;50.846;7.958;2024-03-29T11:10:40;95874.72;;;20.03;34.39
78509;BME280;67802;50.846;7.958;2024-03-29T11:13:19;95863.38;;;20.02;34.38
78509;BME280;67802;50.846;7.958;2024-03-29T11:15:49;95868.63;;;20.02;34.44
78509;BME280;67802;50.846;7.958;2024-03-29T11:18:16;95873.72;;;20.04;34.57
78509;BME280;67802;50.846;7.958;2024-03-29T11:20:44;95857.91;;;20.04;34.57
78509;BME280;67802;50.846;7.958;2024-03-29T11:23:15;95868.44;;;20.04;34.59
78509;BME280;67802;50.846;7.958;2024-03-29T11:25:43;95864.00;;;20.05;34.64
78509;BME280;67802;50.846;7.958;2024-03-29T11:28:11;95865.66;;;20.06;34.64
78509;BME280;67802;50.846;7.958;2024-03-29T11:30:43;95864.66;;;20.07;34.67
78509;BME280;67802;50.846;7.958;2024-03-29T11:33:29;95869.75;;;20.08;34.57
78509;BME280;67802;50.846;7.958;2024-03-29T11:35:55;95864.31;;;20.10;34.67
78509;BME280;67802;50.846;7.958;2024-03-29T11:38:21;95866.94;;;20.10;34.58
78509;BME280;67802;50.846;7.958;2024-03-29T11:41:22;95872.22;;;20.10;34.52
78509;BME280;67802;50.846;7.958;2024-03-29T11:43:55;95863.31;;;20.11;34.62
78509;BME280;67802;50.846;7.958;2024-03-29T11:46:22;95852.63;;;20.04;34.35
78509;BME280;67802;50.846;7.958;2024-03-29T11:48:48;95870.44;;;20.02;34.39
78509;BME280;67802;50.846;7.958;2024-03-29T11:51:19;95879.34;;;20.01;34.43
78509;BME280;67802;50.846;7.958;2024-03-29T11:53:47;95880.16;;;20.01;34.62
78509;BME280;67802;50.846;7.958;2024-03-29T11:56:12;95876.88;;;19.99;34.23
78509;BME280;67802;50.846;7.958;2024-03-29T11:58:38;95880.50;;;19.98;34.17
78509;BME280;67802;50.846;7.958;2024-03-29T12:01:05;95885.13;;;19.96;34.24
78509;BME280;67802;50.846;7.958;2024-03-29T12:03:31;95900.31;;;19.94;34.16
78509;BME280;67802;50.846;7.958;2024-03-29T12:05:59;95890.75;;;19.93;34.19
78509;BME280;67802;50.846;7.958;2024-03-29T12:08:32;95872.66;;;19.90;34.22
78509;BME280;67802;50.846;7.958;2024-03-29T12:10:58;95871.00;;;19.89;34.08
78509;BME280;67802;50.846;7.958;2024-03-29T12:13:24;95864.06;;;19.88;34.09
78509;BME280;67802;50.846;7.958;2024-03-29T12:15:50;95862.44;;;19.87;34.10
78509;BME280;67802;50.846;7.958;2024-03-29T12:18:19;95869.53;;;19.86;34.04
78509;BME280;67802;50.846;7.958;2024-03-29T12:20:45;95876.59;;;19.86;33.96
78509;BME280;67802;50.846;7.958;2024-03-29T12:23:15;95885.50;;;19.85;34.37
78509;BME280;67802;50.846;7.958;2024-03-29T12:25:41;95896.88;;;19.85;34.47
78509;BME280;67802;50.846;7.958;2024-03-29T12:28:07;95880.88;;;19.87;34.56
78509;BME280;67802;50.846;7.958;2024-03-29T12:30:33;95878.91;;;19.89;34.46
78509;BME280;67802;50.846;7.958;2024-03-29T12:33:05;95898.00;;;19.91;34.68
78509;BME280;67802;50.846;7.958;2024-03-29T12:35:32;95917.25;;;19.92;34.81
78509;BME280;67802;50.846;7.958;2024-03-29T12:38:02;95912.00;;;19.92;34.88
78509;BME280;67802;50.846;7.958;2024-03-29T12:40:29;95918.09;;;19.92;35.18
78509;BME280;67802;50.846;7.958;2024-03-29T12:42:57;95923.38;;;19.92;34.91
78509;BME280;67802;50.846;7.958;2024-03-29T12:45:23;95923.38;;;19.92;35.07
78509;BME280;67802;50.846;7.958;2024-03-29T12:47:49;95927.66;;;19.93;35.16
78509;BME280;67802;50.846;7.958;2024-03-29T12:50:28;95928.44;;;19.94;35.20
78509;BME280;67802;50.846;7.958;2024-03-29T12:53:02;95939.81;;;19.94;35.43
78509;BME280;67802;50.846;7.958;2024-03-29T12:55:28;95953.00;;;19.94;35.42
78509;BME280;67802;50.846;7.958;2024-03-29T12:58:00;95957.44;;;19.94;35.37